Wakefield, Nebraska
Current Conditions -  °F | °C
As of 3:55 AM on Tuesday 21 Oct 2014 (Local Time) from KLCG Reporting Station
Clear Clear  
Wind Chill: 35°   Ceiling: Unl
Heat Index: 35°   Visibility: 10mi
Dew Point: 33°   Wind: 3mph
Humidity: 91%   Direction: 230°SW
Pressure: 30.09"   Gusts: NA
Location:  42.27°N, 96.87°W
Report Text: KLCG 210855Z AUTO 23003KT 10SM CLR 02/01 A3009 RMK AO2 T00190005
Loading
Personal Weather Stations






























Interactive Weather Map
Tropical Storm Tracking
New forecast layout! Learn more

10-Day Weather Forecast

Advertisements
Track Severe Weather on mobile